createdAt,value
2018-03-18T00:00:43.101Z,17.40
2018-03-18T00:01:43.242Z,17.90
2018-03-18T00:02:43.382Z,17.50
2018-03-18T00:03:43.523Z,18.80
2018-03-18T00:04:43.665Z,17.90
2018-03-18T00:05:43.808Z,17.60
2018-03-18T00:06:43.945Z,17.30
2018-03-18T00:07:44.085Z,17.50
2018-03-18T00:08:44.224Z,17.50
2018-03-18T00:09:44.366Z,17.80
2018-03-18T00:10:44.508Z,18.60
2018-03-18T00:11:44.647Z,18.80
2018-03-18T00:12:44.790Z,17.10
2018-03-18T00:13:44.930Z,16.70
2018-03-18T00:14:45.076Z,18.00
2018-03-18T00:15:45.210Z,17.10
2018-03-18T00:16:45.353Z,17.20
2018-03-18T00:17:45.493Z,17.70
2018-03-18T00:18:45.634Z,17.70
2018-03-18T00:19:45.775Z,16.90
2018-03-18T00:20:45.919Z,17.20
2018-03-18T00:21:46.064Z,17.00
2018-03-18T00:22:46.206Z,16.70
2018-03-18T00:23:46.346Z,16.90
2018-03-18T00:24:46.488Z,16.80
2018-03-18T00:25:46.639Z,16.10
2018-03-18T00:26:46.760Z,17.30
2018-03-18T00:27:46.901Z,16.00
2018-03-18T00:28:47.042Z,16.40
2018-03-18T00:29:47.185Z,16.70
2018-03-18T00:30:47.331Z,17.10
2018-03-18T00:31:47.467Z,16.30
2018-03-18T00:32:47.606Z,16.20
2018-03-18T00:33:47.748Z,16.60
2018-03-18T00:34:47.888Z,16.60
2018-03-18T00:35:48.030Z,16.40
2018-03-18T00:36:48.170Z,15.70
2018-03-18T00:37:48.315Z,15.80
2018-03-18T00:38:48.450Z,16.40
2018-03-18T00:39:48.595Z,16.50
2018-03-18T00:40:48.732Z,17.40
2018-03-18T00:41:48.874Z,16.30
2018-03-18T00:42:49.017Z,15.50
2018-03-18T00:43:49.164Z,15.40
2018-03-18T00:44:49.300Z,15.30
2018-03-18T00:45:49.440Z,16.30
2018-03-18T00:46:49.579Z,15.80
2018-03-18T00:47:49.721Z,15.50
2018-03-18T00:48:49.859Z,16.10
2018-03-18T00:49:50.005Z,16.10
2018-03-18T00:50:50.142Z,16.80
2018-03-18T00:51:50.283Z,15.20
2018-03-18T00:52:50.425Z,15.70
2018-03-18T00:53:50.564Z,15.70
2018-03-18T00:54:50.707Z,15.80
2018-03-18T00:55:50.847Z,15.40
2018-03-18T00:56:50.988Z,15.70
2018-03-18T00:57:51.129Z,16.40
2018-03-18T00:58:51.268Z,15.30
2018-03-18T00:59:51.409Z,15.70
2018-03-18T01:00:51.551Z,16.00
2018-03-18T01:01:51.694Z,16.20
2018-03-18T01:02:51.829Z,14.90
2018-03-18T01:03:51.970Z,15.10
2018-03-18T01:04:52.109Z,14.50
2018-03-18T01:05:52.251Z,15.40
2018-03-18T01:06:52.393Z,15.30
2018-03-18T01:07:52.540Z,15.10
2018-03-18T01:08:52.675Z,14.70
2018-03-18T01:09:52.814Z,14.60
2018-03-18T01:10:52.953Z,14.70
2018-03-18T01:11:53.096Z,14.60
2018-03-18T01:12:53.234Z,14.80
2018-03-18T01:13:53.376Z,14.90
2018-03-18T01:14:53.516Z,14.60
2018-03-18T01:15:53.656Z,14.90
2018-03-18T01:16:53.797Z,14.60
2018-03-18T01:17:53.941Z,14.40
2018-03-18T01:18:54.081Z,14.60
2018-03-18T01:19:54.219Z,14.90
2018-03-18T01:20:54.361Z,14.80
2018-03-18T01:21:54.503Z,14.70
2018-03-18T01:22:54.640Z,15.00
2018-03-18T01:23:54.783Z,13.50
2018-03-18T01:24:54.923Z,13.80
2018-03-18T01:25:55.062Z,14.70
2018-03-18T01:26:55.210Z,13.90
2018-03-18T01:27:55.345Z,14.80
2018-03-18T01:28:55.485Z,15.20
2018-03-18T01:29:55.632Z,14.20
2018-03-18T01:30:55.772Z,14.30
2018-03-18T01:31:55.911Z,14.50
2018-03-18T01:32:56.049Z,14.70
2018-03-18T01:33:56.193Z,14.80
2018-03-18T01:34:56.334Z,13.90
2018-03-18T01:35:56.476Z,14.80
2018-03-18T01:36:56.616Z,15.50
2018-03-18T01:37:56.761Z,14.10
2018-03-18T01:38:56.896Z,14.40
2018-03-18T01:39:57.040Z,13.90
2018-03-18T01:40:57.179Z,13.90
2018-03-18T01:41:57.319Z,15.20
2018-03-18T01:42:57.460Z,14.30
2018-03-18T01:43:57.602Z,14.60
2018-03-18T01:44:57.743Z,14.00
2018-03-18T01:45:57.884Z,14.20
2018-03-18T01:46:58.030Z,14.50
2018-03-18T01:47:58.169Z,15.00
2018-03-18T01:48:58.313Z,14.20
2018-03-18T01:49:58.453Z,14.20
2018-03-18T01:50:58.596Z,14.30
2018-03-18T01:51:58.738Z,14.50
2018-03-18T01:52:58.877Z,15.30
2018-03-18T01:53:59.015Z,14.50
2018-03-18T01:54:59.156Z,13.80
2018-03-18T01:55:59.303Z,15.00
2018-03-18T01:56:59.440Z,14.60
2018-03-18T01:57:59.579Z,14.40
2018-03-18T01:58:59.720Z,14.20
2018-03-18T01:59:59.858Z,14.60
2018-03-18T02:01:00.002Z,14.80
2018-03-18T02:02:00.144Z,14.50
2018-03-18T02:03:00.287Z,14.60
2018-03-18T02:04:00.424Z,14.40
2018-03-18T02:05:00.565Z,14.60
2018-03-18T02:06:00.705Z,14.30
2018-03-18T02:07:00.844Z,14.90
2018-03-18T02:08:00.986Z,15.00
2018-03-18T02:09:01.126Z,15.70
2018-03-18T02:10:01.272Z,14.40
2018-03-18T02:11:01.409Z,14.60
2018-03-18T02:12:01.552Z,15.10
2018-03-18T02:13:01.696Z,14.20
2018-03-18T02:14:01.836Z,14.00
2018-03-18T02:15:01.979Z,13.60
2018-03-18T02:16:02.116Z,14.20
2018-03-18T02:17:02.263Z,13.80
2018-03-18T02:18:02.401Z,15.00
2018-03-18T02:19:02.564Z,14.70
2018-03-18T02:20:02.682Z,14.60
2018-03-18T02:21:02.823Z,15.10
2018-03-18T02:22:02.962Z,14.60
2018-03-18T02:23:03.103Z,13.80
2018-03-18T02:24:03.246Z,14.70
2018-03-18T02:25:03.387Z,14.90
2018-03-18T02:26:03.529Z,14.60
2018-03-18T02:27:03.669Z,15.00
2018-03-18T02:28:03.809Z,14.40
2018-03-18T02:29:03.953Z,15.20
2018-03-18T02:30:04.103Z,15.40
2018-03-18T02:31:04.233Z,15.40
2018-03-18T02:32:04.373Z,15.10
2018-03-18T02:33:04.513Z,15.10
2018-03-18T02:34:04.660Z,14.90
2018-03-18T02:35:04.792Z,15.40
2018-03-18T02:36:04.935Z,15.10
2018-03-18T02:37:05.082Z,14.40
2018-03-18T02:38:05.216Z,15.10
2018-03-18T02:39:05.357Z,14.40
2018-03-18T02:40:05.497Z,14.30
2018-03-18T02:41:05.640Z,15.00
2018-03-18T02:42:05.796Z,14.60
2018-03-18T02:43:05.945Z,14.20
2018-03-18T02:44:06.056Z,14.50
2018-03-18T02:45:06.199Z,14.60
2018-03-18T02:46:06.337Z,13.40
2018-03-18T02:47:06.477Z,14.40
2018-03-18T02:48:06.620Z,14.50
2018-03-18T02:49:06.759Z,16.00
2018-03-18T02:50:06.911Z,16.10
2018-03-18T02:51:07.044Z,14.90
2018-03-18T02:52:07.186Z,14.00
2018-03-18T02:53:07.328Z,14.90
2018-03-18T02:54:07.471Z,15.20
2018-03-18T02:55:07.624Z,15.80
2018-03-18T02:56:07.752Z,14.80
2018-03-18T02:57:07.892Z,13.00
2018-03-18T02:58:08.035Z,14.90
2018-03-18T02:59:08.173Z,15.00
2018-03-18T03:00:08.311Z,14.10
2018-03-18T03:01:08.454Z,14.90
2018-03-18T03:02:08.598Z,14.80
2018-03-18T03:03:08.736Z,14.20
2018-03-18T03:04:08.873Z,14.70
2018-03-18T03:05:09.013Z,16.50
2018-03-18T03:06:09.156Z,14.70
2018-03-18T03:07:09.295Z,15.10
2018-03-18T03:08:09.439Z,15.10
2018-03-18T03:09:09.579Z,14.40
2018-03-18T03:10:09.718Z,14.00
2018-03-18T03:11:09.859Z,14.90
2018-03-18T03:12:09.999Z,14.50
2018-03-18T03:13:10.143Z,13.80
2018-03-18T03:14:10.283Z,14.10
2018-03-18T03:15:10.426Z,14.60
2018-03-18T03:16:10.566Z,15.50
2018-03-18T03:17:10.707Z,14.90
2018-03-18T03:18:10.849Z,14.80
2018-03-18T03:19:10.990Z,15.70
2018-03-18T03:20:11.131Z,14.10
2018-03-18T03:21:11.270Z,14.20
2018-03-18T03:22:11.411Z,14.80
2018-03-18T03:23:11.550Z,15.10
2018-03-18T03:24:11.686Z,15.10
2018-03-18T03:25:11.824Z,14.20
2018-03-18T03:26:11.971Z,13.80
2018-03-18T03:27:12.110Z,14.50
2018-03-18T03:28:12.255Z,14.20
2018-03-18T03:29:12.395Z,14.20
2018-03-18T03:30:12.531Z,13.30
2018-03-18T03:31:12.691Z,13.80
2018-03-18T03:32:12.850Z,14.60
2018-03-18T03:33:12.955Z,13.90
2018-03-18T03:34:13.114Z,15.30
2018-03-18T03:35:13.240Z,16.20
2018-03-18T03:36:13.376Z,14.20
2018-03-18T03:37:13.533Z,14.40
2018-03-18T03:38:13.663Z,14.80
2018-03-18T03:39:13.802Z,14.30
2018-03-18T03:40:13.945Z,14.80
2018-03-18T03:41:14.085Z,15.80
2018-03-18T03:42:14.229Z,14.90
2018-03-18T03:43:14.368Z,14.40
2018-03-18T03:44:14.510Z,14.30
2018-03-18T03:45:14.653Z,13.90
2018-03-18T03:46:14.790Z,13.60
2018-03-18T03:47:14.931Z,14.60
2018-03-18T03:48:15.072Z,14.50
2018-03-18T03:49:15.212Z,14.10
2018-03-18T03:50:15.352Z,15.80
2018-03-18T03:51:15.498Z,15.00
2018-03-18T03:52:15.634Z,13.40
2018-03-18T03:53:15.775Z,14.10
2018-03-18T03:54:15.913Z,13.50
2018-03-18T03:55:16.060Z,13.70
2018-03-18T03:56:16.199Z,13.80
2018-03-18T03:57:16.338Z,15.30
2018-03-18T03:58:16.479Z,15.40
2018-03-18T03:59:16.623Z,14.70
2018-03-18T04:00:16.762Z,13.90
2018-03-18T04:01:16.901Z,14.00
2018-03-18T04:02:17.049Z,14.30
2018-03-18T04:03:17.183Z,13.80
2018-03-18T04:04:17.321Z,14.60
2018-03-18T04:05:17.462Z,14.10
2018-03-18T04:06:17.601Z,14.30
2018-03-18T04:07:17.742Z,13.90
2018-03-18T04:08:17.886Z,15.20
2018-03-18T04:09:18.025Z,14.30
2018-03-18T04:10:18.165Z,13.10
2018-03-18T04:11:18.306Z,14.30
2018-03-18T04:12:18.445Z,14.50
2018-03-18T04:13:18.587Z,13.40
2018-03-18T04:14:18.728Z,14.80
2018-03-18T04:15:18.868Z,13.70
2018-03-18T04:16:19.002Z,13.90
2018-03-18T04:17:19.191Z,14.80
2018-03-18T04:18:19.296Z,14.10
2018-03-18T04:19:19.434Z,13.50
2018-03-18T04:20:19.574Z,14.70
2018-03-18T04:21:19.717Z,14.10
2018-03-18T04:22:19.857Z,14.50
2018-03-18T04:23:19.998Z,13.20
2018-03-18T04:24:20.134Z,14.40
2018-03-18T04:25:20.280Z,13.90
2018-03-18T04:26:20.418Z,14.50
2018-03-18T04:27:20.560Z,16.50
2018-03-18T04:28:20.701Z,16.40
2018-03-18T04:29:20.838Z,14.90
2018-03-18T04:30:20.980Z,14.60
2018-03-18T04:31:21.121Z,14.40
2018-03-18T04:32:21.260Z,14.30
2018-03-18T04:33:21.401Z,15.20
2018-03-18T04:34:21.539Z,15.40
2018-03-18T04:35:21.680Z,16.40
2018-03-18T04:36:21.822Z,15.80
2018-03-18T04:37:21.962Z,15.40
2018-03-18T04:38:22.103Z,14.30
2018-03-18T04:39:22.243Z,13.70
2018-03-18T04:40:22.382Z,13.70
2018-03-18T04:41:22.522Z,15.10
2018-03-18T04:42:22.662Z,14.60
2018-03-18T04:43:22.802Z,15.00
2018-03-18T04:44:22.945Z,14.60
2018-03-18T04:45:23.083Z,16.20
2018-03-18T04:46:23.221Z,15.10
2018-03-18T04:47:23.361Z,15.80
2018-03-18T04:48:23.502Z,14.30
2018-03-18T04:49:23.641Z,13.40
2018-03-18T04:50:23.781Z,14.20
2018-03-18T04:51:23.927Z,14.30
2018-03-18T04:52:24.065Z,15.30
2018-03-18T04:53:24.204Z,15.30
2018-03-18T04:54:24.347Z,15.10
2018-03-18T04:55:24.488Z,15.60
2018-03-18T04:56:24.638Z,14.50
2018-03-18T04:57:24.775Z,16.00
2018-03-18T04:58:24.911Z,14.20
2018-03-18T04:59:25.050Z,14.30
2018-03-18T05:00:25.193Z,14.10
2018-03-18T05:01:25.331Z,14.10
2018-03-18T05:02:25.474Z,13.10
2018-03-18T05:03:25.615Z,14.00
2018-03-18T05:04:25.757Z,14.10
2018-03-18T05:05:25.898Z,14.50
2018-03-18T05:06:26.039Z,13.90
2018-03-18T05:07:26.185Z,14.50
2018-03-18T05:08:26.321Z,14.20
2018-03-18T05:09:26.465Z,14.40
2018-03-18T05:10:26.603Z,15.80
2018-03-18T05:11:26.742Z,16.00
2018-03-18T05:12:26.887Z,16.40
2018-03-18T05:13:27.017Z,15.30
2018-03-18T05:14:27.180Z,17.20
2018-03-18T05:15:27.325Z,18.10
2018-03-18T05:16:27.468Z,15.60
2018-03-18T05:17:27.608Z,14.50
2018-03-18T05:18:27.775Z,15.70
2018-03-18T05:19:27.891Z,14.90
2018-03-18T05:20:28.032Z,14.50
2018-03-18T05:21:28.173Z,14.90
2018-03-18T05:22:28.314Z,13.80
2018-03-18T05:23:28.451Z,14.30
2018-03-18T05:24:28.586Z,15.00
2018-03-18T05:25:28.727Z,15.60
2018-03-18T05:26:28.870Z,14.90
2018-03-18T05:27:29.011Z,15.00
2018-03-18T05:28:29.151Z,15.40
2018-03-18T05:29:29.308Z,14.70
2018-03-18T05:30:29.450Z,15.30
2018-03-18T05:31:29.590Z,16.10
2018-03-18T05:32:29.728Z,16.60
2018-03-18T05:33:29.875Z,16.00
2018-03-18T05:34:30.008Z,14.10
2018-03-18T05:35:30.148Z,13.90
2018-03-18T05:36:30.290Z,14.10
2018-03-18T05:37:30.430Z,14.00
2018-03-18T05:38:30.570Z,14.00
2018-03-18T05:39:30.710Z,15.00
2018-03-18T05:40:30.870Z,16.50
2018-03-18T05:41:30.987Z,15.50
2018-03-18T05:42:31.127Z,15.00
2018-03-18T05:43:31.270Z,16.10
2018-03-18T05:44:31.414Z,17.00
2018-03-18T05:45:31.555Z,15.20
2018-03-18T05:46:31.699Z,14.30
2018-03-18T05:47:31.835Z,15.30
2018-03-18T05:48:31.977Z,15.10
2018-03-18T05:49:32.121Z,14.70
2018-03-18T05:50:32.265Z,14.60
2018-03-18T05:51:32.404Z,14.80
2018-03-18T05:52:32.546Z,15.30
2018-03-18T05:53:32.688Z,15.30
2018-03-18T05:54:32.827Z,15.10
2018-03-18T05:55:32.970Z,15.20
2018-03-18T05:56:33.110Z,15.80
2018-03-18T05:57:33.248Z,15.10
2018-03-18T05:58:33.388Z,15.10
2018-03-18T05:59:33.530Z,15.80
2018-03-18T06:00:33.672Z,16.20
2018-03-18T06:01:33.809Z,14.80
2018-03-18T06:02:33.949Z,14.10
2018-03-18T06:03:34.088Z,15.20
2018-03-18T06:04:34.229Z,13.90
2018-03-18T06:05:34.368Z,16.30
2018-03-18T06:06:34.545Z,15.20
2018-03-18T06:07:34.651Z,15.40
2018-03-18T06:08:34.794Z,14.30
2018-03-18T06:09:34.932Z,14.90
2018-03-18T06:10:35.073Z,15.00
2018-03-18T06:11:35.213Z,14.30
2018-03-18T06:12:35.355Z,14.50
2018-03-18T06:13:35.499Z,15.70
2018-03-18T06:14:35.639Z,16.20
2018-03-18T06:15:35.781Z,17.20
2018-03-18T06:16:35.920Z,16.00
2018-03-18T06:17:36.062Z,15.20
2018-03-18T06:18:36.201Z,14.90
2018-03-18T06:19:36.344Z,14.20
2018-03-18T06:20:36.485Z,15.10
2018-03-18T06:21:36.625Z,13.80
2018-03-18T06:22:36.769Z,13.90
2018-03-18T06:23:36.910Z,14.10
2018-03-18T06:24:37.052Z,14.30
2018-03-18T06:25:37.197Z,15.90
2018-03-18T06:26:37.337Z,15.10
2018-03-18T06:27:37.479Z,14.20
2018-03-18T06:28:37.623Z,13.40
2018-03-18T06:29:37.762Z,14.30
2018-03-18T06:30:37.906Z,13.90
2018-03-18T06:31:38.045Z,14.40
2018-03-18T06:32:38.184Z,14.50
2018-03-18T06:33:38.324Z,14.00
2018-03-18T06:34:38.464Z,15.10
2018-03-18T06:35:38.605Z,15.50
2018-03-18T06:36:38.745Z,15.00
2018-03-18T06:37:38.885Z,13.30
2018-03-18T06:38:39.027Z,13.10
2018-03-18T06:39:39.168Z,13.90
2018-03-18T06:40:39.308Z,13.50
2018-03-18T06:41:39.453Z,14.50
2018-03-18T06:42:39.592Z,14.30
2018-03-18T06:43:39.736Z,13.60
2018-03-18T06:44:39.877Z,14.40
2018-03-18T06:45:40.018Z,14.50
2018-03-18T06:46:40.165Z,14.00
2018-03-18T06:47:40.297Z,13.90
2018-03-18T06:48:40.439Z,14.00
2018-03-18T06:49:40.581Z,13.30
2018-03-18T06:50:40.722Z,15.50
2018-03-18T06:51:40.869Z,15.50
2018-03-18T06:52:41.003Z,14.20
2018-03-18T06:53:41.145Z,13.90
2018-03-18T06:54:41.283Z,14.00
2018-03-18T06:55:41.425Z,13.00
2018-03-18T06:56:41.569Z,14.80
2018-03-18T06:57:41.707Z,13.40
2018-03-18T06:58:41.846Z,13.60
2018-03-18T06:59:41.988Z,14.00
2018-03-18T07:00:42.130Z,14.50
2018-03-18T07:01:42.272Z,14.00
2018-03-18T07:02:42.416Z,13.10
2018-03-18T07:03:42.556Z,14.60
2018-03-18T07:04:42.699Z,14.70
2018-03-18T07:05:42.836Z,16.10
2018-03-18T07:06:43.012Z,15.40
2018-03-18T07:07:43.130Z,14.60
2018-03-18T07:08:43.284Z,14.70
2018-03-18T07:09:43.415Z,15.90
2018-03-18T07:10:43.549Z,15.50
2018-03-18T07:11:43.690Z,15.60
2018-03-18T07:12:43.834Z,14.90
2018-03-18T07:13:43.972Z,13.90
2018-03-18T07:14:44.114Z,13.60
2018-03-18T07:15:44.254Z,14.90
2018-03-18T07:16:44.399Z,14.70
2018-03-18T07:17:44.544Z,13.30
2018-03-18T07:18:44.682Z,13.30
2018-03-18T07:19:44.821Z,13.20
2018-03-18T07:20:44.967Z,13.80
2018-03-18T07:21:45.112Z,13.10
2018-03-18T07:22:45.250Z,14.10
2018-03-18T07:23:45.385Z,14.40
2018-03-18T07:24:45.527Z,13.80
2018-03-18T07:25:45.671Z,15.20
2018-03-18T07:26:45.809Z,13.30
2018-03-18T07:27:45.950Z,13.70
2018-03-18T07:28:46.090Z,13.00
2018-03-18T07:29:46.231Z,14.30
2018-03-18T07:30:46.370Z,13.70
2018-03-18T07:31:46.523Z,12.40
2018-03-18T07:32:46.655Z,12.70
2018-03-18T07:33:46.800Z,12.50
2018-03-18T07:34:46.938Z,12.90
2018-03-18T07:35:47.081Z,12.80
2018-03-18T07:36:47.245Z,12.80
2018-03-18T07:37:47.362Z,13.10
2018-03-18T07:38:47.537Z,12.30
2018-03-18T07:39:47.643Z,12.60
2018-03-18T07:40:47.785Z,13.30
2018-03-18T07:41:47.928Z,14.10
2018-03-18T07:42:48.068Z,13.80
2018-03-18T07:43:48.223Z,14.30
2018-03-18T07:44:48.364Z,12.70
2018-03-18T07:45:48.493Z,11.30
2018-03-18T07:46:48.631Z,11.90
2018-03-18T07:47:48.772Z,11.50
2018-03-18T07:48:48.913Z,11.80
2018-03-18T07:49:49.054Z,12.00
2018-03-18T07:50:49.194Z,12.00
2018-03-18T07:51:49.336Z,11.80
2018-03-18T07:52:49.477Z,13.10
2018-03-18T07:53:49.621Z,11.80
2018-03-18T07:54:49.762Z,11.80
2018-03-18T07:55:49.902Z,12.40
2018-03-18T07:56:50.044Z,11.90
2018-03-18T07:57:50.186Z,12.00
2018-03-18T07:58:50.329Z,12.00
2018-03-18T07:59:50.468Z,11.30
2018-03-18T08:00:50.612Z,14.60
2018-03-18T08:01:50.752Z,12.20
2018-03-18T08:02:50.894Z,13.80
2018-03-18T08:03:51.035Z,13.10
2018-03-18T08:04:51.177Z,13.10
2018-03-18T08:05:51.320Z,12.20
2018-03-18T08:06:51.463Z,12.60
2018-03-18T08:07:51.605Z,11.40
2018-03-18T08:08:51.748Z,10.80
2018-03-18T08:09:51.889Z,11.50
2018-03-18T08:10:52.030Z,12.20
2018-03-18T08:11:52.173Z,13.10
2018-03-18T08:12:52.316Z,13.10
2018-03-18T08:13:52.468Z,12.40
2018-03-18T08:14:52.608Z,13.30
2018-03-18T08:15:52.748Z,14.90
2018-03-18T08:16:52.895Z,12.90
2018-03-18T08:17:53.039Z,13.70
2018-03-18T08:18:53.180Z,12.70
2018-03-18T08:19:53.323Z,13.10
2018-03-18T08:20:53.486Z,14.00
2018-03-18T08:21:53.611Z,13.70
2018-03-18T08:22:53.750Z,16.00
2018-03-18T08:23:53.893Z,13.60
2018-03-18T08:24:54.032Z,12.20
2018-03-18T08:25:54.173Z,11.50
2018-03-18T08:26:54.316Z,16.40
2018-03-18T08:27:54.468Z,12.30
2018-03-18T08:28:54.627Z,12.30
2018-03-18T08:29:54.738Z,13.70
2018-03-18T08:30:54.886Z,14.10
2018-03-18T08:31:55.028Z,13.40
2018-03-18T08:32:55.169Z,14.60
2018-03-18T08:33:55.456Z,13.60
2018-03-18T08:34:55.401Z,12.20
2018-03-18T08:35:55.565Z,12.70
2018-03-18T08:36:55.687Z,12.50
2018-03-18T08:37:55.829Z,11.20
2018-03-18T08:38:55.971Z,12.40
2018-03-18T08:39:56.114Z,12.20
2018-03-18T08:40:56.265Z,12.40
2018-03-18T08:41:56.400Z,11.90
2018-03-18T08:42:56.540Z,11.20
2018-03-18T08:43:56.685Z,12.00
2018-03-18T08:44:56.830Z,11.50
2018-03-18T08:45:56.971Z,13.30
2018-03-18T08:46:57.124Z,13.10
2018-03-18T08:47:57.268Z,20.30
2018-03-18T08:48:57.421Z,20.80
2018-03-18T08:49:57.560Z,12.50
2018-03-18T08:50:57.699Z,12.70
2018-03-18T08:51:57.840Z,11.20
2018-03-18T08:52:57.982Z,12.10
2018-03-18T08:53:58.125Z,11.40
2018-03-18T08:54:58.268Z,11.20
2018-03-18T08:55:58.411Z,10.80
2018-03-18T08:56:58.562Z,11.20
2018-03-18T08:57:58.701Z,11.80
2018-03-18T08:58:58.845Z,12.00
2018-03-18T08:59:58.994Z,10.80
2018-03-18T09:00:59.132Z,12.00
2018-03-18T09:01:59.275Z,12.30
2018-03-18T09:02:59.418Z,12.20
2018-03-18T09:03:59.562Z,11.20
2018-03-18T09:04:59.702Z,11.90
2018-03-18T09:05:59.846Z,12.90
2018-03-18T09:06:59.987Z,12.20
2018-03-18T09:08:00.129Z,11.20
2018-03-18T09:09:00.271Z,11.10
2018-03-18T09:10:00.417Z,10.80
2018-03-18T09:11:00.560Z,11.60
2018-03-18T09:12:00.703Z,10.80
2018-03-18T09:13:00.845Z,11.10
2018-03-18T09:14:00.989Z,11.90
2018-03-18T09:15:01.133Z,12.00
2018-03-18T09:16:01.280Z,12.00
2018-03-18T09:17:01.418Z,13.50
2018-03-18T09:18:01.560Z,11.70
2018-03-18T09:19:01.707Z,11.60
2018-03-18T09:20:01.852Z,11.60
2018-03-18T09:21:01.994Z,10.70
2018-03-18T09:22:02.137Z,11.30
2018-03-18T09:23:02.331Z,11.10
2018-03-18T09:24:02.429Z,11.30
2018-03-18T09:25:02.572Z,12.30
2018-03-18T09:26:02.718Z,12.90
2018-03-18T09:27:02.850Z,11.90
2018-03-18T09:28:02.998Z,11.80
2018-03-18T09:29:03.140Z,10.30
2018-03-18T09:30:03.275Z,10.90
2018-03-18T09:31:03.425Z,10.70
2018-03-18T09:32:03.564Z,10.60
2018-03-18T09:33:03.706Z,10.80
2018-03-18T09:34:03.848Z,11.50
2018-03-18T09:35:03.992Z,10.70
2018-03-18T09:36:04.135Z,11.00
2018-03-18T09:37:04.321Z,11.40
2018-03-18T09:38:04.438Z,10.30
2018-03-18T09:39:04.583Z,10.30
2018-03-18T09:40:04.722Z,10.70
2018-03-18T09:41:04.869Z,10.50
2018-03-18T09:42:05.009Z,10.40
2018-03-18T09:43:05.187Z,10.10
2018-03-18T09:44:05.290Z,10.10
2018-03-18T09:45:05.429Z,10.00
2018-03-18T09:46:05.574Z,11.00
2018-03-18T09:47:05.720Z,10.70
2018-03-18T09:48:05.864Z,10.30
2018-03-18T09:49:05.997Z,10.50
2018-03-18T09:50:06.156Z,10.70
2018-03-18T09:51:06.281Z,11.40
2018-03-18T09:52:06.419Z,10.10
2018-03-18T09:53:06.563Z,10.10
2018-03-18T09:54:06.707Z,9.80
2018-03-18T09:55:06.858Z,10.50
2018-03-18T09:56:06.992Z,10.30
2018-03-18T09:57:07.134Z,10.70
2018-03-18T09:58:07.288Z,10.80
2018-03-18T09:59:07.423Z,11.60
2018-03-18T10:00:07.589Z,12.70
2018-03-18T10:01:07.719Z,11.80
2018-03-18T10:02:07.842Z,12.20
2018-03-18T10:03:07.976Z,10.40
2018-03-18T10:04:08.121Z,10.20
2018-03-18T10:05:08.290Z,9.70
2018-03-18T10:06:08.406Z,10.30
2018-03-18T10:07:08.593Z,10.40
2018-03-18T10:08:08.699Z,10.20
2018-03-18T10:09:08.826Z,9.70
2018-03-18T10:10:08.964Z,9.90
2018-03-18T10:11:09.103Z,9.60
2018-03-18T10:12:09.239Z,9.70
2018-03-18T10:13:09.421Z,9.90
2018-03-18T10:14:09.559Z,10.30
2018-03-18T10:15:09.716Z,11.10
2018-03-18T10:16:09.871Z,10.30
2018-03-18T10:17:09.972Z,10.00
2018-03-18T10:18:10.104Z,11.80
2018-03-18T10:19:10.313Z,10.00
2018-03-18T10:20:10.347Z,10.10
2018-03-18T10:21:10.516Z,12.70
2018-03-18T10:22:10.658Z,10.40
2018-03-18T10:23:10.831Z,10.00
2018-03-18T10:24:11.011Z,12.30
2018-03-18T10:25:11.138Z,10.50
2018-03-18T10:26:11.274Z,10.00
2018-03-18T10:27:11.442Z,9.80
2018-03-18T10:28:11.563Z,10.00
2018-03-18T10:29:11.714Z,9.30
2018-03-18T10:30:11.856Z,8.70
2018-03-18T10:31:12.051Z,9.20
2018-03-18T10:32:12.120Z,9.00
2018-03-18T10:33:12.293Z,10.60
2018-03-18T10:34:12.505Z,10.20
2018-03-18T10:35:12.641Z,10.20
2018-03-18T10:36:12.609Z,9.40
2018-03-18T10:37:12.764Z,9.50
2018-03-18T10:38:12.943Z,9.50
2018-03-18T10:39:13.138Z,9.30
2018-03-18T10:40:13.269Z,10.30
2018-03-18T10:41:13.363Z,9.40
2018-03-18T10:42:13.557Z,9.20
2018-03-18T10:43:25.191Z,11.90
2018-03-18T10:44:13.825Z,12.50
2018-03-18T10:45:14.013Z,10.80
2018-03-18T10:46:14.190Z,10.70
2018-03-18T10:47:14.295Z,10.30
2018-03-18T10:48:14.422Z,9.80
2018-03-18T10:49:14.528Z,9.70
2018-03-18T10:50:14.662Z,9.30
2018-03-18T10:51:14.803Z,9.30
2018-03-18T10:52:14.946Z,9.20
2018-03-18T10:53:15.090Z,9.00
2018-03-18T10:54:15.232Z,9.10
2018-03-18T10:55:15.379Z,8.60
2018-03-18T10:56:15.533Z,8.80
2018-03-18T10:57:15.692Z,9.30
2018-03-18T10:58:15.803Z,8.90
2018-03-18T10:59:15.950Z,9.00
2018-03-18T11:00:16.096Z,9.30
2018-03-18T11:01:16.229Z,8.60
2018-03-18T11:02:16.377Z,9.10
2018-03-18T11:03:16.513Z,9.10
2018-03-18T11:04:16.690Z,11.10
2018-03-18T11:05:16.802Z,11.70
2018-03-18T11:06:16.973Z,10.70
2018-03-18T11:07:17.110Z,10.50
2018-03-18T11:08:17.287Z,9.60
2018-03-18T11:09:17.431Z,10.20
2018-03-18T11:10:17.591Z,10.70
2018-03-18T11:11:17.769Z,9.30
2018-03-18T11:12:17.898Z,9.50
2018-03-18T11:13:18.032Z,10.30
2018-03-18T11:14:18.192Z,9.10
2018-03-18T11:15:18.340Z,8.60
2018-03-18T11:16:18.493Z,8.90
2018-03-18T11:17:18.623Z,8.70
2018-03-18T11:18:18.769Z,8.40
2018-03-18T11:19:18.918Z,8.50
2018-03-18T11:20:19.070Z,8.30
2018-03-18T11:21:19.232Z,8.30
2018-03-18T11:22:19.388Z,7.50
2018-03-18T11:23:19.549Z,7.50
2018-03-18T11:24:19.681Z,7.60
2018-03-18T11:25:19.834Z,7.80
2018-03-18T11:26:20.036Z,8.00
2018-03-18T11:27:20.131Z,7.90
2018-03-18T11:28:20.261Z,8.10
2018-03-18T11:29:20.394Z,10.60
2018-03-18T11:30:20.562Z,10.20
2018-03-18T11:31:20.779Z,8.70
2018-03-18T11:32:20.801Z,10.20
2018-03-18T11:33:20.956Z,10.30
2018-03-18T11:34:21.126Z,10.20
2018-03-18T11:35:21.338Z,9.20
2018-03-18T11:36:21.387Z,8.40
2018-03-18T11:37:21.524Z,8.10
2018-03-18T11:38:21.706Z,8.40
2018-03-18T11:39:21.849Z,8.10
2018-03-18T11:40:22.018Z,8.60
2018-03-18T11:41:22.230Z,9.60
2018-03-18T11:42:22.371Z,9.80
2018-03-18T11:43:22.527Z,9.60
2018-03-18T11:44:22.671Z,8.40
2018-03-18T11:45:22.806Z,8.90
2018-03-18T11:46:22.953Z,7.70
2018-03-18T11:47:23.330Z,8.40
2018-03-18T11:48:23.309Z,8.10
2018-03-18T11:49:23.475Z,8.70
2018-03-18T11:50:23.676Z,8.20
2018-03-18T11:51:23.705Z,8.40
2018-03-18T11:52:23.852Z,8.40
2018-03-18T11:53:24.069Z,8.60
2018-03-18T11:54:24.229Z,8.30
2018-03-18T11:55:24.296Z,8.30
2018-03-18T11:56:24.448Z,8.80
2018-03-18T11:57:24.616Z,8.30
2018-03-18T11:58:24.811Z,10.30
2018-03-18T11:59:25.018Z,9.30
2018-03-18T12:00:25.165Z,10.10
2018-03-18T12:01:25.360Z,8.90
2018-03-18T12:02:25.511Z,8.30
2018-03-18T12:03:25.667Z,7.80
2018-03-18T12:04:25.919Z,7.90
2018-03-18T12:05:25.941Z,8.20
2018-03-18T12:06:26.127Z,8.50
2018-03-18T12:07:26.247Z,7.70
2018-03-18T12:08:26.630Z,8.40
2018-03-18T12:09:26.541Z,8.10
2018-03-18T12:10:26.789Z,8.20
2018-03-18T12:11:26.810Z,8.00
2018-03-18T12:12:27.024Z,8.50
2018-03-18T12:13:27.053Z,7.80
2018-03-18T12:14:27.215Z,7.10
2018-03-18T12:15:27.413Z,8.00
2018-03-18T12:16:27.552Z,7.80
2018-03-18T12:17:27.689Z,7.70
2018-03-18T12:18:27.870Z,7.40
2018-03-18T12:19:28.069Z,7.30
2018-03-18T12:20:28.155Z,7.60
2018-03-18T12:21:28.326Z,7.60
2018-03-18T12:22:28.483Z,6.80
2018-03-18T12:23:28.637Z,7.50
2018-03-18T12:24:28.767Z,7.50
2018-03-18T12:25:28.898Z,7.60
2018-03-18T12:26:29.038Z,7.60
2018-03-18T12:27:29.191Z,8.00
2018-03-18T12:28:29.375Z,8.00
2018-03-18T12:29:29.512Z,8.60
2018-03-18T12:30:29.673Z,7.80
2018-03-18T12:31:29.836Z,7.40
2018-03-18T12:32:29.983Z,8.40
2018-03-18T12:33:30.151Z,8.50
2018-03-18T12:34:30.282Z,7.10
2018-03-18T12:35:30.453Z,7.30
2018-03-18T12:36:30.710Z,8.20
2018-03-18T12:37:30.732Z,9.00
2018-03-18T12:38:30.959Z,8.10
2018-03-18T12:39:30.993Z,7.60
2018-03-18T12:40:31.138Z,7.80
2018-03-18T12:41:31.302Z,9.40
2018-03-18T12:42:31.621Z,8.60
2018-03-18T12:43:31.613Z,7.50
2018-03-18T12:44:31.770Z,8.30
2018-03-18T12:45:31.931Z,7.50
2018-03-18T12:46:32.137Z,7.70
2018-03-18T12:47:32.238Z,7.20
2018-03-18T12:48:32.350Z,7.40
2018-03-18T12:49:32.469Z,7.50
2018-03-18T12:50:32.593Z,7.00
2018-03-18T12:51:32.651Z,7.00
2018-03-18T12:52:32.810Z,7.40
2018-03-18T12:53:33.115Z,7.40
2018-03-18T12:54:33.290Z,7.80
2018-03-18T12:55:33.353Z,8.10
2018-03-18T12:56:33.656Z,6.90
2018-03-18T12:57:33.782Z,6.60
2018-03-18T12:58:33.889Z,7.20
2018-03-18T12:59:33.962Z,7.10